TimeEDT,TemperatureF,Dew PointF,Humidity,Sea Level PressureIn,VisibilityMPH,Wind Direction,Wind SpeedMPH,Gust SpeedMPH,PrecipitationIn,Events,Conditions,WindDirDegrees,DateUTC
12:15 AM,75.2,71.6,89,29.92,7.0,Calm,Calm,-,N/A,,Scattered Clouds,0,2013-09-13 04:15:00
12:35 AM,75.2,71.6,89,29.91,7.0,Calm,Calm,-,N/A,,Scattered Clouds,0,2013-09-13 04:35:00
12:55 AM,73.4,71.6,94,29.91,7.0,Calm,Calm,-,N/A,,Clear,0,2013-09-13 04:55:00
1:15 AM,73.4,71.6,94,29.91,7.0,Calm,Calm,-,N/A,,Clear,0,2013-09-13 05:15:00
1:35 AM,73.4,71.6,94,29.90,7.0,Calm,Calm,-,N/A,,Clear,0,2013-09-13 05:35:00
1:55 AM,73.4,71.6,94,29.89,7.0,Calm,Calm,-,N/A,,Clear,0,2013-09-13 05:55:00
2:15 AM,75.2,71.6,89,29.89,7.0,Calm,Calm,-,N/A,,Mostly Cloudy,0,2013-09-13 06:15:00
2:35 AM,75.2,69.8,83,29.89,10.0,Calm,Calm,-,N/A,,Mostly Cloudy,0,2013-09-13 06:35:00
2:55 AM,75.2,69.8,83,29.88,10.0,Calm,Calm,-,N/A,,Scattered Clouds,0,2013-09-13 06:55:00
3:15 AM,75.2,66.2,73,29.87,10.0,Calm,Calm,-,N/A,,Clear,0,2013-09-13 07:15:00
3:35 AM,75.2,66.2,73,29.87,10.0,Calm,Calm,-,N/A,,Clear,0,2013-09-13 07:35:00
3:55 AM,75.2,66.2,73,29.87,10.0,Calm,Calm,-,N/A,,Clear,0,2013-09-13 07:55:00
4:15 AM,73.4,66.2,78,29.86,10.0,Calm,Calm,-,N/A,,Clear,0,2013-09-13 08:15:00
4:35 AM,73.4,68.0,83,29.86,10.0,Calm,Calm,-,N/A,,Clear,0,2013-09-13 08:35:00
4:55 AM,73.4,69.8,88,29.86,7.0,Calm,Calm,-,N/A,,Clear,0,2013-09-13 08:55:00
5:15 AM,73.4,69.8,88,29.87,7.0,Calm,Calm,-,N/A,,Mostly Cloudy,0,2013-09-13 09:15:00
5:35 AM,73.4,69.8,88,29.87,7.0,Calm,Calm,-,N/A,,Mostly Cloudy,0,2013-09-13 09:35:00
5:55 AM,73.4,68.0,83,29.87,10.0,Calm,Calm,-,N/A,,Mostly Cloudy,0,2013-09-13 09:55:00
6:15 AM,73.4,68.0,83,29.87,10.0,Calm,Calm,-,N/A,,Scattered Clouds,0,2013-09-13 10:15:00
6:35 AM,73.4,68.0,83,29.87,10.0,West,3.5,-,N/A,,Clear,280,2013-09-13 10:35:00
6:55 AM,75.2,64.4,69,29.87,10.0,WNW,4.6,-,N/A,,Clear,290,2013-09-13 10:55:00
7:15 AM,75.2,62.6,65,29.87,10.0,WNW,4.6,-,N/A,,Clear,290,2013-09-13 11:15:00
7:35 AM,75.2,62.6,65,29.87,10.0,WNW,3.5,-,N/A,,Clear,290,2013-09-13 11:35:00
7:55 AM,75.2,64.4,69,29.88,10.0,West,3.5,-,N/A,,Clear,280,2013-09-13 11:55:00
8:15 AM,77.0,62.6,61,29.88,10.0,WNW,5.8,-,N/A,,Clear,290,2013-09-13 12:15:00
8:35 AM,77.0,62.6,61,29.88,10.0,WNW,4.6,-,N/A,,Clear,300,2013-09-13 12:35:00
8:55 AM,78.8,62.6,57,29.87,10.0,WNW,5.8,-,N/A,,Clear,300,2013-09-13 12:55:00
9:15 AM,78.8,62.6,57,29.88,10.0,NW,4.6,-,N/A,,Clear,320,2013-09-13 13:15:00
9:35 AM,80.6,62.6,54,29.88,10.0,NW,4.6,-,N/A,,Clear,310,2013-09-13 13:35:00
9:55 AM,80.6,62.6,54,29.88,10.0,WNW,5.8,-,N/A,,Clear,290,2013-09-13 13:55:00
10:15 AM,82.4,62.6,51,29.88,10.0,NW,3.5,-,N/A,,Clear,310,2013-09-13 14:15:00
10:35 AM,82.4,60.8,48,29.88,10.0,WNW,5.8,-,N/A,,Clear,300,2013-09-13 14:35:00
10:55 AM,84.2,60.8,45,29.88,10.0,NW,3.5,-,N/A,,Clear,320,2013-09-13 14:55:00
11:15 AM,86.0,60.8,43,29.88,10.0,WNW,5.8,-,N/A,,Clear,290,2013-09-13 15:15:00
11:35 AM,86.0,60.8,43,29.88,10.0,NW,4.6,-,N/A,,Clear,320,2013-09-13 15:35:00
11:55 AM,87.8,59.0,38,29.88,10.0,Calm,Calm,-,N/A,,Clear,0,2013-09-13 15:55:00
12:15 PM,87.8,55.4,33,29.87,10.0,NNW,3.5,-,N/A,,Clear,340,2013-09-13 16:15:00
12:35 PM,89.6,51.8,27,29.86,10.0,WNW,4.6,-,N/A,,Clear,290,2013-09-13 16:35:00
12:55 PM,89.6,51.8,27,29.86,10.0,WNW,4.6,-,N/A,,Clear,300,2013-09-13 16:55:00
1:15 PM,89.6,51.8,27,29.86,10.0,NNE,5.8,-,N/A,,Clear,20,2013-09-13 17:15:00
1:35 PM,89.6,53.6,29,29.84,10.0,North,3.5,-,N/A,,Clear,10,2013-09-13 17:35:00
1:55 PM,91.4,53.6,28,29.84,10.0,NW,4.6,-,N/A,,Scattered Clouds,310,2013-09-13 17:55:00
2:15 PM,89.6,53.6,29,29.84,10.0,WNW,5.8,-,N/A,,Scattered Clouds,290,2013-09-13 18:15:00
2:35 PM,89.6,53.6,29,29.84,10.0,Calm,Calm,-,N/A,,Mostly Cloudy,0,2013-09-13 18:35:00
2:55 PM,91.4,50.0,24,29.83,10.0,North,5.8,-,N/A,,Scattered Clouds,350,2013-09-13 18:55:00
3:15 PM,91.4,41.0,17,29.82,10.0,NW,4.6,-,N/A,,Clear,310,2013-09-13 19:15:00
3:35 PM,91.4,35.6,14,29.81,10.0,WNW,8.1,-,N/A,,Clear,300,2013-09-13 19:35:00
3:55 PM,91.4,37.4,15,29.81,10.0,WNW,3.5,-,N/A,,Clear,300,2013-09-13 19:55:00
4:15 PM,91.4,37.4,15,29.80,10.0,West,4.6,-,N/A,,Clear,280,2013-09-13 20:15:00
4:35 PM,91.4,37.4,15,29.80,10.0,WNW,4.6,-,N/A,,Clear,290,2013-09-13 20:35:00
4:55 PM,91.4,39.2,16,29.79,10.0,NW,4.6,-,N/A,,Clear,320,2013-09-13 20:55:00
5:15 PM,91.4,37.4,15,29.79,10.0,West,4.6,-,N/A,,Clear,270,2013-09-13 21:15:00
5:35 PM,89.6,39.2,17,29.79,10.0,West,4.6,-,N/A,,Clear,280,2013-09-13 21:35:00
5:55 PM,91.4,41.0,17,29.79,10.0,Calm,Calm,-,N/A,,Clear,0,2013-09-13 21:55:00
6:15 PM,89.6,37.4,16,29.79,10.0,Calm,Calm,-,N/A,,Clear,0,2013-09-13 22:15:00
6:35 PM,89.6,35.6,15,29.79,10.0,WNW,5.8,-,N/A,,Clear,300,2013-09-13 22:35:00
6:55 PM,87.8,37.4,17,29.79,10.0,WNW,3.5,-,N/A,,Clear,300,2013-09-13 22:55:00
7:15 PM,84.2,46.4,27,29.81,10.0,Calm,Calm,-,N/A,,Clear,0,2013-09-13 23:15:00
7:35 PM,80.6,50.0,34,29.81,10.0,Calm,Calm,-,N/A,,Clear,0,2013-09-13 23:35:00
7:55 PM,77.0,55.4,47,29.81,10.0,Calm,Calm,-,N/A,,Clear,0,2013-09-13 23:55:00
8:15 PM,77.0,55.4,47,29.82,10.0,Calm,Calm,-,N/A,,Clear,0,2013-09-14 00:15:00
8:35 PM,77.0,55.4,47,29.83,10.0,Calm,Calm,-,N/A,,Clear,0,2013-09-14 00:35:00
8:55 PM,80.6,50.0,34,29.84,10.0,Calm,Calm,-,N/A,,Clear,0,2013-09-14 00:55:00
9:15 PM,78.8,50.0,36,29.85,10.0,Calm,Calm,-,N/A,,Clear,0,2013-09-14 01:15:00
9:35 PM,78.8,46.4,32,29.86,10.0,Calm,Calm,-,N/A,,Clear,0,2013-09-14 01:35:00
9:55 PM,78.8,50.0,36,29.86,10.0,Calm,Calm,-,N/A,,Clear,0,2013-09-14 01:55:00
10:15 PM,77.0,51.8,41,29.87,10.0,Calm,Calm,-,N/A,,Clear,0,2013-09-14 02:15:00
10:35 PM,71.6,55.4,57,29.87,10.0,Calm,Calm,-,N/A,,Clear,0,2013-09-14 02:35:00
10:55 PM,71.6,57.2,60,29.87,10.0,Calm,Calm,-,N/A,,Clear,0,2013-09-14 02:55:00
11:15 PM,71.6,55.4,57,29.88,10.0,Calm,Calm,-,N/A,,Clear,0,2013-09-14 03:15:00
11:35 PM,73.4,51.8,47,29.88,10.0,NW,3.5,-,N/A,,Clear,310,2013-09-14 03:35:00
11:55 PM,75.2,50.0,41,29.89,10.0,NNW,3.5,-,N/A,,Clear,330,2013-09-14 03:55:00